Time;durP1;ratioP1;P1;durP2;ratioP2;P2;SDS_P1;SDS_P2;PMS_P1;PMS_P2;Temp;Humidity;BMP_temperature;BMP_pressure;BME280_temperature;BME280_humidity;BME280_pressure;Samples;Min_cycle;Max_cycle;Signal;HPM_P1;HPM_P2
2023/01/07 00:01:18;;;;;;;10.47;5.63;;;6.80;88.40;;;6.66;56.70;95669.47;4988481;28;20457;-56
2023/01/07 00:03:46;;;;;;;12.07;5.80;;;6.70;88.70;;;6.63;56.69;95685.34;4986173;28;20497;-56
2023/01/07 00:06:16;;;;;;;9.37;5.50;;;6.70;88.90;;;6.60;57.08;95682.94;4984048;28;20959;-57
2023/01/07 00:08:45;;;;;;;10.30;5.07;;;6.70;88.70;;;6.57;56.99;95685.78;4993037;28;20477;-56
2023/01/07 00:11:15;;;;;;;14.00;6.37;;;6.60;89.30;;;6.55;56.92;95678.03;4986782;28;20466;-56
2023/01/07 00:13:42;;;;;;;12.00;6.10;;;6.60;89.40;;;6.53;56.78;95679.03;4985680;28;20474;-57
2023/01/07 00:16:11;;;;;;;9.53;5.90;;;6.60;89.80;;;6.49;57.01;95673.19;4983324;28;20857;-56
2023/01/07 00:18:38;;;;;;;14.57;6.13;;;6.60;89.50;;;6.48;57.14;95670.66;4984115;28;20541;-58
2023/01/07 00:21:07;;;;;;;11.20;5.77;;;6.50;89.50;;;6.45;57.22;95672.50;4982331;28;21117;-56
2023/01/07 00:23:36;;;;;;;9.63;6.67;;;6.50;90.00;;;6.45;57.34;95675.13;4980388;28;20493;-56
2023/01/07 00:26:05;;;;;;;13.13;6.60;;;6.50;90.10;;;6.45;57.72;95672.50;4981871;28;20520;-56
2023/01/07 00:28:34;;;;;;;11.90;6.07;;;6.50;90.60;;;6.44;58.12;95673.47;4978766;28;20489;-56
2023/01/07 00:31:02;;;;;;;12.37;7.27;;;6.50;90.70;;;6.44;57.61;95676.06;4980226;28;20509;-55
2023/01/07 00:33:29;;;;;;;23.83;8.00;;;6.50;90.60;;;6.42;57.57;95677.91;4978267;28;20855;-54
2023/01/07 00:36:00;;;;;;;15.07;7.47;;;6.50;90.40;;;6.40;57.78;95676.34;4984223;28;20466;-58
2023/01/07 00:38:27;;;;;;;12.77;6.03;;;6.50;90.50;;;6.40;57.73;95678.97;4977001;28;21002;-56
2023/01/07 00:40:56;;;;;;;14.40;7.03;;;6.50;90.50;;;6.36;57.71;95673.06;4978937;28;20512;-57
2023/01/07 00:43:23;;;;;;;18.03;6.43;;;6.50;90.40;;;6.34;57.43;95685.41;4977207;28;20502;-55
2023/01/07 00:45:51;;;;;;;8.27;5.37;;;6.40;90.70;;;6.32;57.98;95674.22;4980380;28;20459;-55
2023/01/07 00:48:18;;;;;;;8.13;5.70;;;6.40;91.10;;;6.31;57.59;95685.59;4977254;28;20907;-54
2023/01/07 00:50:45;;;;;;;13.40;6.37;;;6.40;90.70;;;6.28;57.18;95681.38;4979356;28;20494;-57
2023/01/07 00:53:12;;;;;;;10.70;6.43;;;6.40;90.70;;;6.26;57.81;95690.25;4984019;28;20523;-57
2023/01/07 00:55:40;;;;;;;12.23;5.77;;;6.40;91.20;;;6.23;57.93;95680.00;4981764;28;20467;-55
2023/01/07 00:58:09;;;;;;;9.73;6.10;;;6.30;91.20;;;6.21;57.48;95685.31;4978577;28;20569;-55
2023/01/07 01:00:37;;;;;;;12.87;6.00;;;6.30;90.80;;;6.20;58.26;95685.41;4979600;28;20456;-55
2023/01/07 01:03:04;;;;;;;12.43;6.13;;;6.30;91.20;;;6.17;57.53;95690.81;4979110;28;20573;-55
2023/01/07 01:05:32;;;;;;;13.00;5.97;;;6.20;91.10;;;6.15;57.87;95692.66;4981037;28;20515;-57
2023/01/07 01:07:59;;;;;;;20.30;6.87;;;6.20;91.10;;;6.13;58.21;95697.97;4982469;28;20475;-57
2023/01/07 01:10:26;;;;;;;8.83;6.23;;;6.20;91.30;;;6.12;57.74;95698.06;4981000;28;20491;-57
2023/01/07 01:12:54;;;;;;;12.30;4.80;;;6.20;91.30;;;6.11;58.00;95699.84;4977318;28;20543;-57
2023/01/07 01:15:22;;;;;;;8.73;5.60;;;6.20;91.20;;;6.07;58.01;95699.22;4983175;28;20459;-57
2023/01/07 01:17:50;;;;;;;8.00;5.20;;;6.20;91.30;;;6.07;57.93;95696.59;4977531;28;20475;-56
2023/01/07 01:20:18;;;;;;;9.17;6.17;;;6.20;91.70;;;6.04;58.12;95688.94;4979065;28;20455;-57
2023/01/07 01:22:45;;;;;;;14.20;5.63;;;6.20;91.30;;;6.01;58.05;95702.19;4977113;28;20912;-58
2023/01/07 01:25:12;;;;;;;11.07;5.90;;;6.10;91.50;;;5.99;58.00;95698.81;4981313;28;20477;-57
2023/01/07 01:27:40;;;;;;;16.20;6.47;;;6.10;91.40;;;5.97;58.18;95703.28;4980056;28;20479;-55
2023/01/07 01:30:08;;;;;;;14.23;7.03;;;6.10;91.50;;;5.95;57.83;95705.13;4980620;28;20498;-57
2023/01/07 01:32:37;;;;;;;10.97;5.57;;;6.00;91.30;;;5.94;58.14;95700.81;4979263;28;20476;-56
2023/01/07 01:35:05;;;;;;;18.83;6.63;;;6.00;91.40;;;5.94;57.99;95693.00;4982205;28;20532;-58
2023/01/07 01:37:33;;;;;;;7.10;5.80;;;6.00;91.70;;;5.93;58.44;95686.06;4979052;28;20490;-54
2023/01/07 01:40:02;;;;;;;8.20;4.63;;;6.00;91.60;;;5.93;58.12;95686.06;4976944;28;20462;-57
2023/01/07 01:42:30;;;;;;;18.67;5.13;;;6.00;91.60;;;5.92;58.34;95684.41;4981621;28;20908;-58
2023/01/07 01:44:58;;;;;;;9.20;5.33;;;6.00;91.90;;;5.92;58.63;95689.66;4979403;28;20458;-56
2023/01/07 01:47:32;;;;;;;17.77;6.17;;;6.00;91.90;;;5.92;58.78;95689.66;4977798;28;20482;-57
2023/01/07 01:50:07;;;;;;;12.20;5.87;;;6.00;92.00;;;5.91;58.85;95685.34;4975436;28;20889;-56
2023/01/07 01:52:38;;;;;;;9.43;5.50;;;6.00;92.20;;;5.90;58.55;95678.44;4977755;28;20477;-55
2023/01/07 01:55:07;;;;;;;9.33;5.30;;;6.00;92.30;;;5.90;59.10;95681.03;4978096;28;20459;-57
2023/01/07 01:57:35;;;;;;;9.63;5.33;;;6.00;92.70;;;5.86;59.50;95682.16;4976777;28;20478;-56
2023/01/07 02:00:02;;;;;;;9.50;5.37;;;5.90;93.00;;;5.83;59.21;95682.34;4978246;28;20514;-55
2023/01/07 02:02:33;;;;;;;15.87;6.23;;;5.90;92.70;;;5.82;58.84;95686.72;4983446;28;20484;-55
2023/01/07 02:05:04;;;;;;;13.87;5.30;;;5.90;92.40;;;5.81;58.97;95679.84;4978219;28;20460;-56
2023/01/07 02:07:31;;;;;;;12.40;5.23;;;5.90;92.70;;;5.83;59.00;95679.75;4988148;28;20471;-57
2023/01/07 02:10:02;;;;;;;12.30;5.27;;;5.90;92.80;;;5.82;58.89;95678.88;4987442;28;20486;-56
2023/01/07 02:12:56;;;;;;;13.00;5.70;;;5.90;92.60;;;5.84;58.90;95671.81;4980980;28;20475;-56
2023/01/07 02:15:29;;;;;;;8.70;5.30;;;5.90;92.60;;;5.85;58.87;95667.44;4981895;28;20534;-56
2023/01/07 02:18:11;;;;;;;9.77;5.57;;;5.90;92.70;;;5.86;58.85;95674.34;4978458;28;20473;-56
2023/01/07 02:21:00;;;;;;;10.63;6.73;;;5.90;92.60;;;5.86;58.76;95666.50;4978314;28;20454;-57
2023/01/07 02:24:17;;;;;;;11.03;5.60;;;5.90;92.70;;;5.86;59.20;95671.72;4970978;28;20471;-56
2023/01/07 02:27:19;;;;;;;12.97;5.93;;;6.00;92.70;;;5.85;58.88;95678.69;4977717;28;20470;-55
2023/01/07 02:30:49;;;;;;;10.53;5.80;;;6.00;92.70;;;5.84;59.12;95678.78;4983630;28;20963;-55
2023/01/07 02:33:39;;;;;;;9.87;4.67;;;6.00;92.80;;;5.83;59.12;95677.97;4972150;28;20990;-56
2023/01/07 02:36:35;;;;;;;12.43;6.33;;;5.90;92.70;;;5.81;58.98;95676.38;4976924;28;20452;-56
2023/01/07 02:39:29;;;;;;;11.87;5.73;;;5.90;92.80;;;5.78;58.86;95680.00;4976081;28;20553;-55
2023/01/07 02:41:58;;;;;;;15.57;5.73;;;5.90;92.70;;;5.74;58.90;95676.72;4971731;28;20467;-57
2023/01/07 02:44:31;;;;;;;12.13;6.10;;;5.90;92.80;;;5.72;58.87;95672.53;4977282;28;20575;-56
2023/01/07 02:47:02;;;;;;;17.43;6.00;;;5.90;92.90;;;5.71;59.05;95681.28;4975651;28;20460;-55
2023/01/07 02:49:31;;;;;;;17.63;8.10;;;5.80;92.70;;;5.69;59.13;95673.56;4978354;28;20538;-56
2023/01/07 02:52:20;;;;;;;24.30;10.37;;;5.80;92.90;;;5.68;59.31;95681.47;4978554;28;20513;-55
2023/01/07 02:54:50;;;;;;;20.73;8.60;;;5.80;92.90;;;5.64;58.92;95683.44;4973703;28;20891;-57
2023/01/07 02:57:39;;;;;;;12.87;7.53;;;5.80;92.70;;;5.63;58.93;95673.91;4977638;28;20913;-56
2023/01/07 03:00:15;;;;;;;16.77;9.83;;;5.80;92.80;;;5.57;59.14;95682.94;4974656;28;20642;-54
2023/01/07 03:03:24;;;;;;;21.57;8.83;;;5.70;93.10;;;5.53;59.58;95691.03;4978094;28;20589;-56
2023/01/07 03:06:01;;;;;;;15.93;8.90;;;5.70;93.10;;;5.47;59.38;95686.16;4975979;28;20466;-56
2023/01/07 03:08:43;;;;;;;16.97;9.37;;;5.60;93.10;;;5.42;59.40;95682.97;4979284;28;20510;-57
2023/01/07 03:11:10;;;;;;;17.07;10.13;;;5.50;93.30;;;5.34;59.35;95684.25;4980799;28;20565;-56
2023/01/07 03:13:39;;;;;;;21.80;10.60;;;5.50;93.00;;;5.32;59.25;95686.13;4977413;28;20466;-55
2023/01/07 03:16:10;;;;;;;15.17;8.27;;;5.50;93.00;;;5.29;59.09;95691.50;4974323;28;20552;-56
2023/01/07 03:18:40;;;;;;;19.17;10.20;;;5.40;93.00;;;5.23;59.42;95686.66;4976339;28;20482;-57
2023/01/07 03:21:13;;;;;;;20.23;10.50;;;5.40;93.00;;;5.17;59.50;95692.19;4977581;28;20876;-55
2023/01/07 03:23:44;;;;;;;16.10;8.90;;;5.30;93.20;;;5.12;59.28;95683.81;4977219;28;20489;-57
2023/01/07 03:26:11;;;;;;;17.70;8.87;;;5.30;93.20;;;5.09;59.61;95689.19;4980416;28;20459;-59
2023/01/07 03:28:40;;;;;;;20.20;10.13;;;5.30;93.40;;;5.07;59.49;95688.44;4976110;28;21006;-54
2023/01/07 03:31:08;;;;;;;26.93;10.67;;;5.20;93.80;;;5.05;59.63;95690.28;4977914;28;20556;-56
2023/01/07 03:33:39;;;;;;;16.10;8.27;;;5.20;93.70;;;5.05;59.26;95687.69;4974655;28;20546;-56
2023/01/07 03:36:09;;;;;;;17.27;9.90;;;5.20;93.50;;;5.02;59.53;95689.53;4982661;28;20446;-56
2023/01/07 03:38:36;;;;;;;16.93;9.27;;;5.20;93.50;;;5.00;59.79;95685.31;4977168;28;20617;-56
2023/01/07 03:41:03;;;;;;;19.17;9.73;;;5.10;93.60;;;4.98;60.04;95687.19;4976343;28;20620;-57
2023/01/07 03:43:29;;;;;;;23.13;11.00;;;5.10;93.60;;;4.96;59.82;95684.66;4974619;28;20482;-56
2023/01/07 03:45:56;;;;;;;22.63;9.83;;;5.10;93.70;;;4.94;59.93;95691.75;4975275;28;20459;-56
2023/01/07 03:48:25;;;;;;;20.27;10.83;;;5.10;93.80;;;4.94;60.04;95689.13;4974296;28;20483;-56
2023/01/07 03:50:52;;;;;;;16.07;9.30;;;5.10;93.80;;;4.93;59.79;95690.06;4974902;28;20490;-55
2023/01/07 03:53:21;;;;;;;19.73;7.80;;;5.10;94.20;;;4.95;60.20;95692.56;4975565;28;21026;-55
2023/01/07 03:55:48;;;;;;;14.70;8.47;;;5.10;94.10;;;4.95;60.31;95688.19;4974326;28;20986;-57
2023/01/07 03:58:15;;;;;;;14.80;6.70;;;5.10;94.20;;;4.97;60.55;95693.31;4974925;28;20990;-56
2023/01/07 04:00:46;;;;;;;10.23;6.60;;;5.10;94.40;;;5.00;60.18;95701.84;4979792;28;20516;-56
2023/01/07 04:03:13;;;;;;;17.13;7.00;;;5.10;94.30;;;5.04;60.54;95697.28;4982454;28;20471;-56
2023/01/07 04:05:40;;;;;;;13.80;7.87;;;5.20;94.50;;;5.08;60.14;95703.16;4983910;28;20445;-57
2023/01/07 04:08:07;;;;;;;11.07;7.30;;;5.20;94.40;;;5.11;60.40;95705.59;4982105;28;20482;-57
2023/01/07 04:10:36;;;;;;;15.07;7.87;;;5.20;94.40;;;5.13;60.45;95708.97;4982712;28;20553;-56
2023/01/07 04:13:04;;;;;;;13.33;7.37;;;5.20;94.50;;;5.15;60.54;95709.72;4983090;28;20478;-54
2023/01/07 04:15:31;;;;;;;10.07;6.37;;;5.30;94.60;;;5.17;60.51;95716.53;4982809;28;20466;-54
2023/01/07 04:17:58;;;;;;;19.37;9.63;;;5.30;94.70;;;5.19;60.19;95708.63;4980499;28;21035;-56
2023/01/07 04:20:25;;;;;;;12.77;7.50;;;5.30;94.30;;;5.18;60.30;95710.38;4983192;28;20461;-55
2023/01/07 04:22:52;;;;;;;29.30;12.90;;;5.30;94.30;;;5.17;60.41;95710.47;4979367;28;20483;-57
2023/01/07 04:25:20;;;;;;;19.03;8.80;;;5.30;94.40;;;5.17;60.38;95707.84;4982363;28;20478;-57
2023/01/07 04:27:48;;;;;;;14.17;7.00;;;5.30;94.50;;;5.20;60.40;95712.91;4981993;28;20479;-56
2023/01/07 04:30:16;;;;;;;14.97;7.40;;;5.30;94.60;;;5.20;60.20;95720.72;4979977;28;20565;-56
2023/01/07 04:32:43;;;;;;;11.83;7.03;;;5.30;94.20;;;5.16;60.45;95719.22;4981061;28;20483;-57
2023/01/07 04:35:10;;;;;;;13.47;6.67;;;5.30;94.40;;;5.10;60.05;95720.41;4981589;28;20478;-56
2023/01/07 04:37:37;;;;;;;11.73;7.20;;;5.30;94.40;;;5.05;60.27;95719.81;4980252;28;20483;-57
2023/01/07 04:40:06;;;;;;;15.10;7.50;;;5.30;94.60;;;5.03;60.84;95721.66;4979760;28;20451;-56
2023/01/07 04:42:34;;;;;;;15.63;7.10;;;5.20;94.60;;;5.01;60.75;95720.91;4980290;28;20482;-55
2023/01/07 04:45:02;;;;;;;12.70;7.40;;;5.20;94.70;;;4.99;60.67;95726.22;4977839;28;20486;-55
2023/01/07 04:47:29;;;;;;;15.63;7.70;;;5.10;94.70;;;4.96;60.70;95723.78;4977089;28;20513;-56
2023/01/07 04:49:57;;;;;;;18.60;7.90;;;5.10;94.70;;;4.95;61.09;95737.72;4978640;28;21026;-54
2023/01/07 04:52:24;;;;;;;18.33;8.13;;;5.10;95.10;;;4.93;61.19;95728.31;4976880;28;20577;-55
2023/01/07 04:54:51;;;;;;;17.03;8.10;;;5.10;95.30;;;4.93;60.93;95729.16;4982383;28;20458;-56
2023/01/07 04:57:18;;;;;;;16.60;8.53;;;5.10;95.20;;;4.94;61.36;95727.38;4978698;28;20545;-56
2023/01/07 04:59:46;;;;;;;13.53;8.00;;;5.10;95.30;;;4.92;61.58;95724.03;4978570;28;21022;-56
2023/01/07 05:02:14;;;;;;;26.20;8.50;;;5.10;95.40;;;4.96;61.25;95726.38;4981282;28;20571;-56
2023/01/07 05:04:42;;;;;;;17.73;8.37;;;5.10;95.50;;;4.95;61.13;95729.91;4977651;28;20455;-53
2023/01/07 05:07:09;;;;;;;13.50;7.80;;;5.10;95.50;;;4.93;61.18;95736.97;4979130;28;20486;-56
2023/01/07 05:09:36;;;;;;;13.00;7.70;;;5.10;95.40;;;4.90;61.27;95731.09;4977359;28;20981;-55
2023/01/07 05:12:04;;;;;;;15.60;8.90;;;5.10;95.50;;;4.91;61.37;95727.53;4978998;28;20490;-54
2023/01/07 05:14:31;;;;;;;9.83;7.23;;;5.00;95.40;;;4.91;61.45;95728.41;4982648;28;20948;-57
2023/01/07 05:16:58;;;;;;;15.03;8.10;;;5.10;95.50;;;4.92;61.61;95730.06;4978899;28;20467;-54
2023/01/07 05:19:27;;;;;;;17.47;9.13;;;5.00;95.60;;;4.91;61.29;95736.22;4979260;28;20452;-55
2023/01/07 05:21:54;;;;;;;20.00;10.10;;;5.00;95.40;;;4.91;61.26;95735.38;4968993;28;20548;-57
2023/01/07 05:24:22;;;;;;;21.50;10.30;;;5.00;95.40;;;4.91;61.44;95738.84;4968482;28;20465;-56
2023/01/07 05:26:52;;;;;;;25.23;10.83;;;5.00;95.60;;;4.90;61.61;95742.34;4971126;28;20555;-56
2023/01/07 05:29:19;;;;;;;17.40;10.87;;;5.10;95.80;;;4.85;61.28;95745.22;4976602;28;20451;-56
2023/01/07 05:31:46;;;;;;;15.40;10.03;;;5.00;95.60;;;4.81;61.51;95740.25;4967286;28;20556;-56
2023/01/07 05:34:13;;;;;;;16.80;9.27;;;4.90;95.70;;;4.73;61.91;95742.44;4967404;28;20593;-54
2023/01/07 05:36:42;;;;;;;11.23;7.60;;;4.90;95.90;;;4.65;61.42;95748.06;4966795;28;20467;-56
2023/01/07 05:39:09;;;;;;;12.57;6.00;;;4.80;95.50;;;4.59;61.15;95754.44;4983882;28;20529;-57
2023/01/07 05:41:37;;;;;;;9.63;6.37;;;4.70;95.50;;;4.49;61.25;95748.00;4978964;28;20455;-57
2023/01/07 05:44:04;;;;;;;10.60;7.37;;;4.60;95.30;;;4.40;60.67;95743.28;4980412;28;20915;-57
2023/01/07 05:46:32;;;;;;;17.50;8.57;;;4.60;95.30;;;4.28;60.86;95752.59;4978465;28;21026;-53
2023/01/07 05:48:59;;;;;;;12.37;7.83;;;4.40;95.20;;;4.20;61.13;95742.56;4980585;28;21143;-57
2023/01/07 05:51:26;;;;;;;9.20;6.10;;;4.40;95.20;;;4.15;61.50;95747.16;4979183;28;20494;-57
2023/01/07 05:53:55;;;;;;;13.80;6.13;;;4.30;95.30;;;4.07;61.48;95750.16;4979611;28;20478;-56
2023/01/07 05:56:22;;;;;;;9.87;6.07;;;4.20;95.20;;;4.02;61.98;95757.38;4980963;28;20641;-57
2023/01/07 05:58:49;;;;;;;12.43;7.83;;;4.20;95.60;;;4.00;61.85;95761.81;4979048;28;20490;-57
2023/01/07 06:01:17;;;;;;;10.00;6.77;;;4.20;95.80;;;4.01;61.64;95749.63;4971654;28;20461;-58
2023/01/07 06:03:44;;;;;;;11.00;6.60;;;4.20;96.00;;;4.01;61.39;95754.84;4983056;28;20482;-57
2023/01/07 06:06:11;;;;;;;8.67;5.53;;;4.20;95.80;;;4.03;61.89;95755.59;4981867;28;20466;-56
2023/01/07 06:08:38;;;;;;;9.43;6.60;;;4.20;95.90;;;4.07;61.58;95759.75;4978413;28;20557;-56
2023/01/07 06:11:07;;;;;;;6.50;5.27;;;4.20;95.90;;;4.10;61.73;95751.78;4979326;28;20897;-57
2023/01/07 06:13:34;;;;;;;8.90;6.40;;;4.20;95.90;;;4.15;61.43;95759.34;4978110;28;20486;-56
2023/01/07 06:16:02;;;;;;;10.73;5.53;;;4.30;96.00;;;4.19;61.89;95756.50;4982753;28;20510;-57
2023/01/07 06:18:29;;;;;;;9.53;5.50;;;4.30;96.00;;;4.33;62.08;95752.34;4976552;28;20533;-57
2023/01/07 06:20:56;;;;;;;13.83;6.10;;;4.40;96.20;;;4.64;61.76;95760.22;4978244;28;20455;-56
2023/01/07 06:23:24;;;;;;;10.87;5.73;;;4.70;96.30;;;5.10;61.20;95753.47;4979096;28;20486;-58
2023/01/07 06:25:51;;;;;;;11.57;7.10;;;5.20;96.20;;;5.59;60.49;95763.72;4979602;28;20533;-56
2023/01/07 06:28:20;;;;;;;13.23;7.57;;;5.70;95.70;;;6.03;59.69;95760.38;4977963;28;20486;-55
2023/01/07 06:30:47;;;;;;;18.93;9.83;;;6.10;95.00;;;6.29;58.59;95755.38;4978376;28;20570;-56
2023/01/07 06:33:15;;;;;;;24.90;11.10;;;6.40;94.10;;;6.36;58.01;95751.44;4980635;28;20536;-58
2023/01/07 06:35:42;;;;;;;15.30;9.23;;;6.50;93.40;;;6.29;58.26;95755.38;4978801;28;20458;-58
2023/01/07 06:38:09;;;;;;;14.33;8.10;;;6.50;93.10;;;6.20;58.08;95753.31;4980383;28;20709;-53
2023/01/07 06:40:37;;;;;;;9.80;7.97;;;6.40;93.10;;;6.09;58.58;95752.19;4979170;28;20566;-56
2023/01/07 06:43:04;;;;;;;14.00;7.10;;;6.30;93.20;;;6.01;58.49;95762.25;4982730;28;20498;-58
2023/01/07 06:45:33;;;;;;;9.27;7.00;;;6.20;93.30;;;5.94;58.71;95760.88;4980212;28;20490;-56
2023/01/07 06:48:00;;;;;;;9.33;7.00;;;6.10;93.30;;;5.88;58.81;95759.44;4977880;28;20479;-57
2023/01/07 06:50:28;;;;;;;13.93;6.57;;;6.10;93.50;;;5.86;59.01;95763.09;4981727;28;20463;-55
2023/01/07 06:52:55;;;;;;;13.43;7.30;;;6.00;93.60;;;5.85;59.14;95766.63;4977858;28;20514;-56
2023/01/07 06:55:23;;;;;;;14.20;10.80;;;6.00;93.70;;;5.87;59.26;95764.75;4977977;28;20481;-58
2023/01/07 06:57:50;;;;;;;12.93;9.33;;;6.00;93.90;;;5.91;59.06;95776.72;4973961;28;21018;-55
2023/01/07 07:00:18;;;;;;;14.63;9.00;;;6.00;94.00;;;5.95;58.86;95773.00;4974816;28;20971;-56
2023/01/07 07:02:46;;;;;;;13.67;8.43;;;6.10;94.10;;;5.99;59.01;95771.91;4982335;28;20495;-57
2023/01/07 07:05:14;;;;;;;16.87;8.73;;;6.10;94.00;;;6.01;59.00;95770.06;4981762;28;20461;-56
2023/01/07 07:07:41;;;;;;;11.10;6.77;;;6.10;94.00;;;6.03;58.99;95770.81;4979464;28;20528;-56
2023/01/07 07:10:09;;;;;;;29.27;9.03;;;6.10;94.00;;;6.08;59.12;95773.16;4978761;28;20459;-56
2023/01/07 07:12:36;;;;;;;14.33;9.03;;;6.20;94.10;;;6.14;59.24;95777.19;4978044;28;20499;-56
2023/01/07 07:15:04;;;;;;;15.27;10.20;;;6.20;94.10;;;6.20;59.13;95766.38;4980361;28;20486;-57
2023/01/07 07:17:32;;;;;;;21.20;9.60;;;6.30;94.00;;;6.30;58.94;95771.91;4985263;28;20521;-58
2023/01/07 07:20:01;;;;;;;18.40;9.57;;;6.40;94.00;;;6.52;58.46;95780.13;4977499;28;20569;-57
2023/01/07 07:22:28;;;;;;;17.00;11.03;;;6.60;94.00;;;6.93;58.12;95770.69;4975353;28;20474;-56
2023/01/07 07:24:55;;;;;;;29.27;12.33;;;6.90;93.80;;;7.58;57.42;95777.91;4975670;28;20559;-57
2023/01/07 07:27:22;;;;;;;16.60;10.90;;;7.60;93.60;;;8.47;56.68;95773.81;4976421;28;20900;-57
2023/01/07 07:29:50;;;;;;;22.60;11.60;;;8.50;93.10;;;9.43;55.44;95775.03;4979345;28;20961;-56
2023/01/07 07:32:17;;;;;;;29.63;11.67;;;9.50;92.10;;;10.34;53.99;95771.84;4980573;28;20586;-57
2023/01/07 07:34:44;;;;;;;26.27;11.80;;;10.50;90.30;;;11.24;52.37;95767.59;4981231;28;20459;-58
2023/01/07 07:37:13;;;;;;;21.20;11.73;;;11.50;88.80;;;12.11;51.00;95770.25;4985815;28;20497;-57
2023/01/07 07:39:40;;;;;;;24.33;11.90;;;12.30;84.30;;;12.89;49.91;95769.91;4984819;28;20450;-55
2023/01/07 07:42:07;;;;;;;18.10;10.53;;;13.10;82.00;;;13.66;48.28;95768.50;4980202;28;21038;-56
2023/01/07 07:44:35;;;;;;;17.80;11.20;;;13.70;78.60;;;14.33;47.15;95763.41;4985009;28;20544;-57
2023/01/07 07:47:02;;;;;;;29.53;12.37;;;14.40;76.00;;;14.90;45.70;95760.78;4983182;28;20469;-58
2023/01/07 07:49:29;;;;;;;19.57;9.90;;;14.90;72.20;;;15.35;44.71;95767.16;4985045;28;20459;-55
2023/01/07 07:51:57;;;;;;;18.90;11.60;;;15.40;70.70;;;15.81;43.78;95756.59;4985813;28;21038;-59
2023/01/07 07:54:26;;;;;;;19.03;10.47;;;15.80;67.50;;;16.18;42.89;95761.75;4983944;28;20874;-59
2023/01/07 07:56:54;;;;;;;18.30;10.07;;;16.10;65.60;;;16.43;42.34;95756.66;4983132;28;20474;-56
2023/01/07 07:59:22;;;;;;;17.87;10.40;;;16.40;63.20;;;16.61;42.07;95759.28;4980318;28;20469;-54
2023/01/07 08:01:51;;;;;;;13.03;8.67;;;16.50;62.20;;;16.78;41.41;95761.06;4985913;28;20466;-58
2023/01/07 08:04:19;;;;;;;23.93;9.60;;;16.70;60.90;;;16.90;41.08;95759.00;4983874;28;20455;-58
2023/01/07 08:06:46;;;;;;;21.33;10.50;;;16.80;59.80;;;17.04;40.64;95754.94;4976913;28;20473;-56
2023/01/07 08:09:13;;;;;;;15.40;9.73;;;17.00;59.70;;;17.22;40.14;95770.78;4980928;28;20493;-57
2023/01/07 08:11:43;;;;;;;12.90;9.30;;;17.00;58.40;;;17.43;40.35;95769.56;4983279;28;20498;-54
2023/01/07 08:14:11;;;;;;;18.53;10.00;;;17.20;59.00;;;17.59;39.79;95769.63;4984656;28;20574;-58
2023/01/07 08:16:38;;;;;;;22.10;10.50;;;17.30;57.70;;;17.77;39.69;95760.69;4982363;28;20485;-56
2023/01/07 08:19:05;;;;;;;12.70;9.40;;;17.50;57.50;;;18.03;39.04;95760.59;4981399;28;20541;-58
2023/01/07 08:21:33;;;;;;;16.43;9.47;;;17.70;57.40;;;18.26;38.09;95761.66;4984918;28;20525;-55
2023/01/07 08:24:00;;;;;;;14.13;8.67;;;18.00;55.50;;;18.45;38.64;95767.63;4978432;28;20558;-59
2023/01/07 08:26:27;;;;;;;19.40;10.97;;;18.10;55.70;;;18.65;38.47;95757.47;4981202;28;20462;-58
2023/01/07 08:28:56;;;;;;;16.70;9.40;;;18.30;55.40;;;18.89;37.64;95753.16;4984297;28;20565;-57
2023/01/07 08:31:23;;;;;;;20.60;10.20;;;18.50;55.10;;;19.13;37.23;95752.22;4982769;28;20529;-55
2023/01/07 08:33:50;;;;;;;16.43;10.10;;;18.70;54.40;;;19.40;37.05;95760.84;4980481;28;20478;-57
2023/01/07 08:36:18;;;;;;;15.57;10.10;;;19.00;54.00;;;19.64;36.29;95755.41;4981684;28;20697;-56
2023/01/07 08:38:45;;;;;;;17.40;10.40;;;19.20;53.10;;;19.89;36.14;95755.25;4991188;28;20478;-57
2023/01/07 08:41:12;;;;;;;20.60;10.40;;;19.40;52.90;;;20.06;35.39;95753.31;4985800;28;20845;-61
2023/01/07 08:43:40;;;;;;;20.37;10.70;;;19.60;51.30;;;20.15;35.76;95756.78;4981199;28;20862;-57
2023/01/07 08:46:09;;;;;;;14.37;11.10;;;19.80;51.60;;;20.28;35.32;95756.19;4984193;28;20889;-58
2023/01/07 08:48:37;;;;;;;24.33;12.57;;;19.90;50.80;;;20.39;34.88;95750.44;4983271;28;20556;-56
2023/01/07 08:51:05;;;;;;;24.80;12.80;;;20.00;50.40;;;20.45;34.55;95746.19;4979722;28;20466;-58
2023/01/07 08:53:32;;;;;;;24.30;13.23;;;20.10;50.00;;;20.46;34.34;95745.19;4987246;28;20520;-58
2023/01/07 08:55:59;;;;;;;22.23;13.80;;;20.10;49.20;;;20.46;34.13;95747.88;4989473;28;20917;-60
2023/01/07 08:58:27;;;;;;;22.00;13.50;;;20.10;49.20;;;20.42;33.78;95745.56;4983085;28;20560;-57
2023/01/07 09:00:54;;;;;;;22.13;13.40;;;20.10;48.20;;;20.29;33.75;95737.31;4984824;28;20485;-56
2023/01/07 09:03:23;;;;;;;20.30;14.40;;;20.00;48.00;;;20.24;34.19;95745.03;4983300;28;20482;-57
2023/01/07 09:05:50;;;;;;;21.07;13.20;;;19.90;48.90;;;20.21;34.34;95740.03;4984427;28;20463;-58
2023/01/07 09:08:17;;;;;;;29.80;13.80;;;19.80;48.40;;;20.22;33.92;95736.38;4984506;28;20474;-59
2023/01/07 09:10:44;;;;;;;22.13;14.03;;;19.80;47.90;;;20.24;34.17;95729.81;4981017;28;20452;-57
2023/01/07 09:13:12;;;;;;;25.70;12.27;;;19.80;48.80;;;20.31;33.92;95723.75;4979990;28;20491;-57
2023/01/07 09:15:39;;;;;;;18.60;13.90;;;19.90;48.50;;;20.29;32.50;95725.78;4982163;28;20455;-56
2023/01/07 09:18:06;;;;;;;25.87;14.20;;;19.80;46.10;;;20.21;33.46;95718.69;4985941;28;21069;-58
2023/01/07 09:20:35;;;;;;;27.93;12.60;;;19.70;47.00;;;20.14;33.64;95720.38;4981298;28;20446;-58
2023/01/07 09:23:02;;;;;;;33.40;21.10;;;19.70;47.90;;;20.20;33.62;95717.84;4983169;28;20487;-58
2023/01/07 09:25:30;;;;;;;45.47;20.33;;;19.70;48.10;;;20.36;33.68;95708.88;4980596;28;20451;-56
2023/01/07 09:27:57;;;;;;;24.17;14.20;;;19.80;48.20;;;20.55;33.39;95704.84;4979801;28;20485;-56
2023/01/07 09:30:24;;;;;;;25.53;14.60;;;20.00;48.20;;;20.68;33.24;95706.09;4984473;28;20831;-56
2023/01/07 09:32:51;;;;;;;34.40;15.70;;;20.10;47.50;;;20.82;33.18;95697.28;4985423;28;20506;-56
2023/01/07 09:35:19;;;;;;;34.93;16.53;;;20.30;47.80;;;21.03;32.75;95701.88;4985938;28;20473;-60
2023/01/07 09:37:48;;;;;;;41.93;17.93;;;20.50;47.30;;;21.20;32.57;95694.50;4982147;28;20554;-57
2023/01/07 09:40:23;;;;;;;44.50;15.93;;;20.70;46.90;;;21.39;31.83;95687.75;4988219;28;20916;-57
2023/01/07 09:42:56;;;;;;;29.73;17.20;;;20.90;46.60;;;21.51;32.29;95682.78;4981166;28;20560;-56
2023/01/07 09:45:26;;;;;;;30.03;14.63;;;21.00;46.40;;;21.65;32.46;95673.88;4983531;28;20481;-58
2023/01/07 09:47:55;;;;;;;26.70;15.10;;;21.10;46.50;;;21.88;32.75;95669.38;4981430;28;20486;-56
2023/01/07 09:50:29;;;;;;;22.07;15.27;;;21.20;47.10;;;22.10;32.14;95652.28;4980317;28;20443;-56
2023/01/07 09:53:00;;;;;;;28.60;13.47;;;21.50;46.20;;;22.35;32.31;95652.75;4980527;28;20595;-55
2023/01/07 09:55:32;;;;;;;27.67;13.77;;;21.70;47.30;;;22.61;31.38;95650.44;4981036;28;20465;-60
2023/01/07 09:58:00;;;;;;;21.90;13.80;;;22.00;45.70;;;22.87;30.93;95645.25;4979317;28;20549;-58
2023/01/07 10:00:27;;;;;;;21.20;14.17;;;22.20;45.40;;;22.99;30.66;95642.84;4983137;28;20505;-56
2023/01/07 10:03:13;;;;;;;24.27;12.67;;;22.40;43.70;;;23.05;30.22;95639.38;4981659;28;20466;-57
2023/01/07 10:05:45;;;;;;;24.63;11.67;;;22.50;43.80;;;23.05;29.85;95636.69;4980148;28;20446;-55
2023/01/07 10:08:22;;;;;;;17.10;10.77;;;22.50;43.70;;;23.07;28.48;95626.56;4980607;28;20486;-56
2023/01/07 10:10:53;;;;;;;20.10;11.30;;;22.50;42.70;;;23.08;30.46;95620.22;4975985;28;20454;-57
2023/01/07 10:13:56;;;;;;;28.30;11.67;;;22.50;43.50;;;23.24;28.91;95615.53;4975949;28;20504;-57
2023/01/07 10:16:27;;;;;;;17.17;9.73;;;22.60;43.20;;;23.39;30.06;95615.34;4976073;28;20480;-55
2023/01/07 10:19:00;;;;;;;14.93;8.97;;;22.80;43.70;;;23.60;29.90;95617.91;4985386;28;20486;-55
2023/01/07 10:21:35;;;;;;;13.87;8.70;;;22.90;42.90;;;23.76;28.49;95610.50;4979064;28;20443;-56
2023/01/07 10:24:09;;;;;;;12.57;8.17;;;23.10;41.80;;;23.78;28.37;95606.59;4978335;28;20498;-56
2023/01/07 10:26:38;;;;;;;15.20;8.80;;;23.20;41.00;;;23.85;29.55;95603.94;4976931;28;20450;-57
2023/01/07 10:29:08;;;;;;;13.30;7.20;;;23.30;42.70;;;24.05;28.67;95598.56;4981687;28;20478;-55
2023/01/07 10:31:35;;;;;;;20.97;9.80;;;23.40;41.30;;;24.13;28.18;95592.97;4978306;28;20846;-55